sensor_id;sensor_type;location;lat;lon;timestamp;temperature;humidity
18876;DHT22;9570;50.854;13.778;2023-04-15T00:01:24;7.50;99.90
18876;DHT22;9570;50.854;13.778;2023-04-15T00:03:51;7.50;99.90
18876;DHT22;9570;50.854;13.778;2023-04-15T00:06:20;7.30;99.90
18876;DHT22;9570;50.854;13.778;2023-04-15T00:08:46;7.40;99.90
18876;DHT22;9570;50.854;13.778;2023-04-15T00:11:12;7.40;99.90
18876;DHT22;9570;50.854;13.778;2023-04-15T00:13:38;7.50;99.90
18876;DHT22;9570;50.854;13.778;2023-04-15T00:16:05;7.50;99.90
18876;DHT22;9570;50.854;13.778;2023-04-15T00:18:31;7.40;99.90
18876;DHT22;9570;50.854;13.778;2023-04-15T00:20:57;7.30;99.90
18876;DHT22;9570;50.854;13.778;2023-04-15T00:23:23;7.30;99.90
18876;DHT22;9570;50.854;13.778;2023-04-15T00:25:48;7.30;99.90
18876;DHT22;9570;50.854;13.778;2023-04-15T00:28:14;7.20;99.90
18876;DHT22;9570;50.854;13.778;2023-04-15T00:30:39;7.30;99.90
18876;DHT22;9570;50.854;13.778;2023-04-15T00:33:05;7.40;99.90
18876;DHT22;9570;50.854;13.778;2023-04-15T00:35:31;7.40;99.90
18876;DHT22;9570;50.854;13.778;2023-04-15T00:37:57;7.50;99.90
18876;DHT22;9570;50.854;13.778;2023-04-15T00:40:23;7.30;99.90
18876;DHT22;9570;50.854;13.778;2023-04-15T00:42:49;7.20;99.90
18876;DHT22;9570;50.854;13.778;2023-04-15T00:45:14;7.20;99.90
18876;DHT22;9570;50.854;13.778;2023-04-15T00:47:41;7.30;99.90
18876;DHT22;9570;50.854;13.778;2023-04-15T00:50:08;7.30;99.90
18876;DHT22;9570;50.854;13.778;2023-04-15T00:52:33;7.30;99.90
18876;DHT22;9570;50.854;13.778;2023-04-15T00:54:59;7.30;99.90
18876;DHT22;9570;50.854;13.778;2023-04-15T00:57:25;7.30;99.90
18876;DHT22;9570;50.854;13.778;2023-04-15T00:59:51;7.40;99.90
18876;DHT22;9570;50.854;13.778;2023-04-15T01:02:18;7.50;99.90
18876;DHT22;9570;50.854;13.778;2023-04-15T01:04:44;7.40;99.90
18876;DHT22;9570;50.854;13.778;2023-04-15T01:07:09;7.40;99.90
18876;DHT22;9570;50.854;13.778;2023-04-15T01:09:35;7.40;99.90
18876;DHT22;9570;50.854;13.778;2023-04-15T01:12:00;7.40;99.90
18876;DHT22;9570;50.854;13.778;2023-04-15T01:14:27;7.30;99.90
18876;DHT22;9570;50.854;13.778;2023-04-15T01:16:53;7.40;99.90
18876;DHT22;9570;50.854;13.778;2023-04-15T01:19:18;7.50;99.90
18876;DHT22;9570;50.854;13.778;2023-04-15T01:21:44;7.40;99.90
18876;DHT22;9570;50.854;13.778;2023-04-15T01:24:10;7.40;99.90
18876;DHT22;9570;50.854;13.778;2023-04-15T01:26:38;7.40;99.90
18876;DHT22;9570;50.854;13.778;2023-04-15T01:29:04;7.40;99.90
18876;DHT22;9570;50.854;13.778;2023-04-15T01:31:29;7.40;99.90
18876;DHT22;9570;50.854;13.778;2023-04-15T01:33:55;7.40;99.90
18876;DHT22;9570;50.854;13.778;2023-04-15T01:36:20;7.30;99.90
18876;DHT22;9570;50.854;13.778;2023-04-15T01:38:46;7.40;99.90
18876;DHT22;9570;50.854;13.778;2023-04-15T01:41:12;7.50;99.90
18876;DHT22;9570;50.854;13.778;2023-04-15T01:43:38;7.60;99.90
18876;DHT22;9570;50.854;13.778;2023-04-15T01:46:04;7.70;99.90
18876;DHT22;9570;50.854;13.778;2023-04-15T01:48:30;7.60;99.90
18876;DHT22;9570;50.854;13.778;2023-04-15T01:50:57;7.60;99.90
18876;DHT22;9570;50.854;13.778;2023-04-15T01:53:23;7.60;99.90
18876;DHT22;9570;50.854;13.778;2023-04-15T01:55:49;7.70;99.90
18876;DHT22;9570;50.854;13.778;2023-04-15T01:58:15;7.80;99.90
18876;DHT22;9570;50.854;13.778;2023-04-15T02:00:41;7.90;99.90
18876;DHT22;9570;50.854;13.778;2023-04-15T02:03:07;7.70;99.90
18876;DHT22;9570;50.854;13.778;2023-04-15T02:05:32;7.60;99.90
18876;DHT22;9570;50.854;13.778;2023-04-15T02:07:58;7.70;99.90
18876;DHT22;9570;50.854;13.778;2023-04-15T02:10:23;7.60;99.90
18876;DHT22;9570;50.854;13.778;2023-04-15T02:12:49;7.60;99.90
18876;DHT22;9570;50.854;13.778;2023-04-15T02:15:14;7.70;99.90
18876;DHT22;9570;50.854;13.778;2023-04-15T02:17:40;7.80;99.90
18876;DHT22;9570;50.854;13.778;2023-04-15T02:20:10;7.70;99.90
18876;DHT22;9570;50.854;13.778;2023-04-15T02:22:36;7.70;99.90
18876;DHT22;9570;50.854;13.778;2023-04-15T02:25:01;7.80;99.90
18876;DHT22;9570;50.854;13.778;2023-04-15T02:27:26;7.90;99.90
18876;DHT22;9570;50.854;13.778;2023-04-15T02:29:53;7.80;99.90
18876;DHT22;9570;50.854;13.778;2023-04-15T02:32:18;7.70;99.90
18876;DHT22;9570;50.854;13.778;2023-04-15T02:34:44;7.60;99.90
18876;DHT22;9570;50.854;13.778;2023-04-15T02:37:13;7.70;99.90
18876;DHT22;9570;50.854;13.778;2023-04-15T02:39:39;7.70;99.90
18876;DHT22;9570;50.854;13.778;2023-04-15T02:42:04;7.50;99.90
18876;DHT22;9570;50.854;13.778;2023-04-15T02:44:30;7.60;99.90
18876;DHT22;9570;50.854;13.778;2023-04-15T02:46:57;7.50;99.90
18876;DHT22;9570;50.854;13.778;2023-04-15T02:49:24;7.40;99.90
18876;DHT22;9570;50.854;13.778;2023-04-15T02:51:49;7.30;99.90
18876;DHT22;9570;50.854;13.778;2023-04-15T02:54:19;7.30;99.90
18876;DHT22;9570;50.854;13.778;2023-04-15T02:56:45;7.40;99.90
18876;DHT22;9570;50.854;13.778;2023-04-15T02:59:11;7.50;99.90
18876;DHT22;9570;50.854;13.778;2023-04-15T03:01:37;7.40;99.90
18876;DHT22;9570;50.854;13.778;2023-04-15T03:04:02;7.50;99.90
18876;DHT22;9570;50.854;13.778;2023-04-15T03:06:28;7.40;99.90
18876;DHT22;9570;50.854;13.778;2023-04-15T03:08:53;7.30;99.90
18876;DHT22;9570;50.854;13.778;2023-04-15T03:11:19;7.40;99.90
18876;DHT22;9570;50.854;13.778;2023-04-15T03:13:45;7.40;99.90
18876;DHT22;9570;50.854;13.778;2023-04-15T03:16:11;7.40;99.90
18876;DHT22;9570;50.854;13.778;2023-04-15T03:18:37;7.50;99.90
18876;DHT22;9570;50.854;13.778;2023-04-15T03:21:02;7.50;99.90
18876;DHT22;9570;50.854;13.778;2023-04-15T03:23:30;7.60;99.90
18876;DHT22;9570;50.854;13.778;2023-04-15T03:25:55;7.60;99.90
18876;DHT22;9570;50.854;13.778;2023-04-15T03:28:22;7.60;99.90
18876;DHT22;9570;50.854;13.778;2023-04-15T03:30:48;7.50;99.90
18876;DHT22;9570;50.854;13.778;2023-04-15T03:33:13;7.50;99.90
18876;DHT22;9570;50.854;13.778;2023-04-15T03:35:38;7.40;99.90
18876;DHT22;9570;50.854;13.778;2023-04-15T03:38:04;7.30;99.90
18876;DHT22;9570;50.854;13.778;2023-04-15T03:40:30;7.30;99.90
18876;DHT22;9570;50.854;13.778;2023-04-15T03:42:55;7.40;99.90
18876;DHT22;9570;50.854;13.778;2023-04-15T03:45:21;7.30;99.90
18876;DHT22;9570;50.854;13.778;2023-04-15T03:47:46;7.40;99.90
18876;DHT22;9570;50.854;13.778;2023-04-15T03:50:12;7.60;99.90
18876;DHT22;9570;50.854;13.778;2023-04-15T03:52:37;7.60;99.90
18876;DHT22;9570;50.854;13.778;2023-04-15T03:55:03;7.70;99.90
18876;DHT22;9570;50.854;13.778;2023-04-15T03:57:28;7.40;99.90
18876;DHT22;9570;50.854;13.778;2023-04-15T03:59:54;7.40;99.90
18876;DHT22;9570;50.854;13.778;2023-04-15T04:02:19;7.30;99.90
18876;DHT22;9570;50.854;13.778;2023-04-15T04:04:45;7.30;99.90
18876;DHT22;9570;50.854;13.778;2023-04-15T04:07:15;7.20;99.90
18876;DHT22;9570;50.854;13.778;2023-04-15T04:09:40;7.20;99.90
18876;DHT22;9570;50.854;13.778;2023-04-15T04:12:06;7.30;99.90
18876;DHT22;9570;50.854;13.778;2023-04-15T04:14:31;7.20;99.90
18876;DHT22;9570;50.854;13.778;2023-04-15T04:16:57;7.30;99.90
18876;DHT22;9570;50.854;13.778;2023-04-15T04:19:22;7.30;99.90
18876;DHT22;9570;50.854;13.778;2023-04-15T04:21:48;7.20;99.90
18876;DHT22;9570;50.854;13.778;2023-04-15T04:24:13;7.20;99.90
18876;DHT22;9570;50.854;13.778;2023-04-15T04:26:39;7.30;99.90
18876;DHT22;9570;50.854;13.778;2023-04-15T04:29:04;7.40;99.90
18876;DHT22;9570;50.854;13.778;2023-04-15T04:31:30;7.40;99.90
18876;DHT22;9570;50.854;13.778;2023-04-15T04:33:56;7.40;99.90
18876;DHT22;9570;50.854;13.778;2023-04-15T04:36:21;7.40;99.90
18876;DHT22;9570;50.854;13.778;2023-04-15T04:38:47;7.50;99.90
18876;DHT22;9570;50.854;13.778;2023-04-15T04:41:12;7.60;99.90
18876;DHT22;9570;50.854;13.778;2023-04-15T04:43:38;7.70;99.90
18876;DHT22;9570;50.854;13.778;2023-04-15T04:46:03;7.70;99.90
18876;DHT22;9570;50.854;13.778;2023-04-15T04:48:29;7.80;99.90
18876;DHT22;9570;50.854;13.778;2023-04-15T04:50:54;7.80;99.90
18876;DHT22;9570;50.854;13.778;2023-04-15T04:53:20;7.80;99.90
18876;DHT22;9570;50.854;13.778;2023-04-15T04:55:45;7.90;99.90
18876;DHT22;9570;50.854;13.778;2023-04-15T04:58:11;7.80;99.90
18876;DHT22;9570;50.854;13.778;2023-04-15T05:00:36;7.90;99.90
18876;DHT22;9570;50.854;13.778;2023-04-15T05:03:02;7.90;99.90
18876;DHT22;9570;50.854;13.778;2023-04-15T05:05:28;7.90;99.90
18876;DHT22;9570;50.854;13.778;2023-04-15T05:07:53;8.00;99.90
18876;DHT22;9570;50.854;13.778;2023-04-15T05:10:19;8.00;99.90
18876;DHT22;9570;50.854;13.778;2023-04-15T05:12:44;8.00;99.90
18876;DHT22;9570;50.854;13.778;2023-04-15T05:15:10;7.90;99.90
18876;DHT22;9570;50.854;13.778;2023-04-15T05:17:36;7.90;99.90
18876;DHT22;9570;50.854;13.778;2023-04-15T05:20:02;7.90;99.90
18876;DHT22;9570;50.854;13.778;2023-04-15T05:22:28;8.00;99.90
18876;DHT22;9570;50.854;13.778;2023-04-15T05:24:53;8.00;99.90
18876;DHT22;9570;50.854;13.778;2023-04-15T05:27:19;8.00;99.90
18876;DHT22;9570;50.854;13.778;2023-04-15T05:29:44;8.00;99.90
18876;DHT22;9570;50.854;13.778;2023-04-15T05:32:10;8.00;99.90
18876;DHT22;9570;50.854;13.778;2023-04-15T05:34:36;8.10;99.90
18876;DHT22;9570;50.854;13.778;2023-04-15T05:37:01;8.10;99.90
18876;DHT22;9570;50.854;13.778;2023-04-15T05:39:27;8.20;99.90
18876;DHT22;9570;50.854;13.778;2023-04-15T05:41:53;8.20;99.90
18876;DHT22;9570;50.854;13.778;2023-04-15T05:44:18;8.10;99.90
18876;DHT22;9570;50.854;13.778;2023-04-15T05:46:43;8.00;99.90
18876;DHT22;9570;50.854;13.778;2023-04-15T05:49:09;7.80;99.90
18876;DHT22;9570;50.854;13.778;2023-04-15T05:51:34;7.70;99.90
18876;DHT22;9570;50.854;13.778;2023-04-15T05:54:00;7.80;99.90
18876;DHT22;9570;50.854;13.778;2023-04-15T05:56:26;7.80;99.90
18876;DHT22;9570;50.854;13.778;2023-04-15T05:58:52;7.90;99.90
18876;DHT22;9570;50.854;13.778;2023-04-15T06:01:18;8.00;99.90
18876;DHT22;9570;50.854;13.778;2023-04-15T06:03:43;8.10;99.90
18876;DHT22;9570;50.854;13.778;2023-04-15T06:06:09;8.10;99.90
18876;DHT22;9570;50.854;13.778;2023-04-15T06:08:34;8.20;99.90
18876;DHT22;9570;50.854;13.778;2023-04-15T06:11:00;8.20;99.90
18876;DHT22;9570;50.854;13.778;2023-04-15T06:13:25;8.30;99.90
18876;DHT22;9570;50.854;13.778;2023-04-15T06:15:51;8.30;99.90
18876;DHT22;9570;50.854;13.778;2023-04-15T06:18:17;8.30;99.90
18876;DHT22;9570;50.854;13.778;2023-04-15T06:20:44;8.20;99.90
18876;DHT22;9570;50.854;13.778;2023-04-15T06:23:09;8.20;99.90
18876;DHT22;9570;50.854;13.778;2023-04-15T06:25:35;8.20;99.90
18876;DHT22;9570;50.854;13.778;2023-04-15T06:28:00;8.30;99.90
18876;DHT22;9570;50.854;13.778;2023-04-15T06:30:25;8.40;99.90
18876;DHT22;9570;50.854;13.778;2023-04-15T06:32:51;8.40;99.90
18876;DHT22;9570;50.854;13.778;2023-04-15T06:35:16;8.50;99.90
18876;DHT22;9570;50.854;13.778;2023-04-15T06:37:42;8.50;99.90
18876;DHT22;9570;50.854;13.778;2023-04-15T06:40:08;8.50;99.90
18876;DHT22;9570;50.854;13.778;2023-04-15T06:42:34;8.50;99.90
18876;DHT22;9570;50.854;13.778;2023-04-15T06:45:01;8.40;99.90
18876;DHT22;9570;50.854;13.778;2023-04-15T06:47:26;8.40;99.90
18876;DHT22;9570;50.854;13.778;2023-04-15T06:49:52;8.40;99.90
18876;DHT22;9570;50.854;13.778;2023-04-15T06:52:17;8.40;99.90
18876;DHT22;9570;50.854;13.778;2023-04-15T06:54:42;8.50;99.90
18876;DHT22;9570;50.854;13.778;2023-04-15T06:57:08;8.60;99.90
18876;DHT22;9570;50.854;13.778;2023-04-15T06:59:34;8.60;99.90
18876;DHT22;9570;50.854;13.778;2023-04-15T07:01:59;8.50;99.90
18876;DHT22;9570;50.854;13.778;2023-04-15T07:04:25;8.60;99.90
18876;DHT22;9570;50.854;13.778;2023-04-15T07:06:52;8.70;99.90
18876;DHT22;9570;50.854;13.778;2023-04-15T07:09:18;8.80;99.90
18876;DHT22;9570;50.854;13.778;2023-04-15T07:11:44;8.90;99.90
18876;DHT22;9570;50.854;13.778;2023-04-15T07:14:09;9.00;99.90
18876;DHT22;9570;50.854;13.778;2023-04-15T07:16:35;8.80;99.90
18876;DHT22;9570;50.854;13.778;2023-04-15T07:19:00;8.60;99.90
18876;DHT22;9570;50.854;13.778;2023-04-15T07:21:26;8.60;99.90
18876;DHT22;9570;50.854;13.778;2023-04-15T07:23:52;8.70;99.90
18876;DHT22;9570;50.854;13.778;2023-04-15T07:26:17;8.80;99.90
18876;DHT22;9570;50.854;13.778;2023-04-15T07:28:43;8.90;99.90
18876;DHT22;9570;50.854;13.778;2023-04-15T07:31:10;9.00;99.90
18876;DHT22;9570;50.854;13.778;2023-04-15T07:33:36;9.00;99.90
18876;DHT22;9570;50.854;13.778;2023-04-15T07:36:01;9.00;99.90
18876;DHT22;9570;50.854;13.778;2023-04-15T07:38:27;9.00;99.90
18876;DHT22;9570;50.854;13.778;2023-04-15T07:40:52;9.00;99.90
18876;DHT22;9570;50.854;13.778;2023-04-15T07:43:18;8.90;99.90
18876;DHT22;9570;50.854;13.778;2023-04-15T07:45:45;8.80;99.90
18876;DHT22;9570;50.854;13.778;2023-04-15T07:48:11;8.70;99.90
18876;DHT22;9570;50.854;13.778;2023-04-15T07:50:36;8.80;99.90
18876;DHT22;9570;50.854;13.778;2023-04-15T07:53:02;8.90;99.90
18876;DHT22;9570;50.854;13.778;2023-04-15T07:55:27;8.80;99.90
18876;DHT22;9570;50.854;13.778;2023-04-15T07:57:54;8.60;99.90
18876;DHT22;9570;50.854;13.778;2023-04-15T08:00:20;8.40;99.90
18876;DHT22;9570;50.854;13.778;2023-04-15T08:02:46;8.10;99.90
18876;DHT22;9570;50.854;13.778;2023-04-15T08:05:12;8.10;99.90
18876;DHT22;9570;50.854;13.778;2023-04-15T08:07:38;8.10;99.90
18876;DHT22;9570;50.854;13.778;2023-04-15T08:10:04;8.00;99.90
18876;DHT22;9570;50.854;13.778;2023-04-15T08:12:30;7.80;99.90
18876;DHT22;9570;50.854;13.778;2023-04-15T08:14:56;7.70;99.90
18876;DHT22;9570;50.854;13.778;2023-04-15T08:17:22;7.40;99.90
18876;DHT22;9570;50.854;13.778;2023-04-15T08:19:47;7.40;99.90
18876;DHT22;9570;50.854;13.778;2023-04-15T08:22:13;7.40;99.90
18876;DHT22;9570;50.854;13.778;2023-04-15T08:24:39;7.50;99.90
18876;DHT22;9570;50.854;13.778;2023-04-15T08:27:05;7.50;99.90
18876;DHT22;9570;50.854;13.778;2023-04-15T08:29:31;7.50;99.90
18876;DHT22;9570;50.854;13.778;2023-04-15T08:31:58;7.60;99.90
18876;DHT22;9570;50.854;13.778;2023-04-15T08:34:24;7.50;99.90
18876;DHT22;9570;50.854;13.778;2023-04-15T08:36:50;7.60;99.90
18876;DHT22;9570;50.854;13.778;2023-04-15T08:39:16;7.70;99.90
18876;DHT22;9570;50.854;13.778;2023-04-15T08:41:46;7.80;99.90
18876;DHT22;9570;50.854;13.778;2023-04-15T08:44:13;7.90;99.90
18876;DHT22;9570;50.854;13.778;2023-04-15T08:46:40;8.10;99.90
18876;DHT22;9570;50.854;13.778;2023-04-15T08:49:09;8.00;99.90
18876;DHT22;9570;50.854;13.778;2023-04-15T08:51:35;8.00;99.90
18876;DHT22;9570;50.854;13.778;2023-04-15T08:54:02;7.80;99.90
18876;DHT22;9570;50.854;13.778;2023-04-15T08:56:30;7.80;99.90
18876;DHT22;9570;50.854;13.778;2023-04-15T08:58:57;7.80;99.90
18876;DHT22;9570;50.854;13.778;2023-04-15T09:01:23;7.80;99.90
18876;DHT22;9570;50.854;13.778;2023-04-15T09:03:49;7.80;99.90
18876;DHT22;9570;50.854;13.778;2023-04-15T09:06:16;7.90;99.90
18876;DHT22;9570;50.854;13.778;2023-04-15T09:08:42;8.00;99.90
18876;DHT22;9570;50.854;13.778;2023-04-15T09:11:07;8.10;99.90
18876;DHT22;9570;50.854;13.778;2023-04-15T09:13:33;8.20;99.90
18876;DHT22;9570;50.854;13.778;2023-04-15T09:16:01;8.20;99.90
18876;DHT22;9570;50.854;13.778;2023-04-15T09:18:29;8.00;99.90
18876;DHT22;9570;50.854;13.778;2023-04-15T09:21:09;8.10;99.90
18876;DHT22;9570;50.854;13.778;2023-04-15T09:23:37;8.20;99.90
18876;DHT22;9570;50.854;13.778;2023-04-15T09:26:03;8.20;99.90
18876;DHT22;9570;50.854;13.778;2023-04-15T09:28:30;8.30;99.90
18876;DHT22;9570;50.854;13.778;2023-04-15T09:30:59;8.40;99.90
18876;DHT22;9570;50.854;13.778;2023-04-15T09:33:26;8.40;99.90
18876;DHT22;9570;50.854;13.778;2023-04-15T09:36:01;8.40;99.90
18876;DHT22;9570;50.854;13.778;2023-04-15T09:38:27;8.50;99.90
18876;DHT22;9570;50.854;13.778;2023-04-15T09:40:53;8.50;99.90
18876;DHT22;9570;50.854;13.778;2023-04-15T09:43:18;8.60;99.90
18876;DHT22;9570;50.854;13.778;2023-04-15T09:45:49;8.60;99.90
18876;DHT22;9570;50.854;13.778;2023-04-15T09:48:17;8.70;99.90
18876;DHT22;9570;50.854;13.778;2023-04-15T09:50:43;8.60;99.90
18876;DHT22;9570;50.854;13.778;2023-04-15T09:53:10;8.60;99.90
18876;DHT22;9570;50.854;13.778;2023-04-15T09:55:36;8.50;99.90
18876;DHT22;9570;50.854;13.778;2023-04-15T09:58:07;8.60;99.90
18876;DHT22;9570;50.854;13.778;2023-04-15T10:00:32;8.50;99.90
18876;DHT22;9570;50.854;13.778;2023-04-15T10:02:58;8.40;99.90
18876;DHT22;9570;50.854;13.778;2023-04-15T10:05:24;8.40;99.90
18876;DHT22;9570;50.854;13.778;2023-04-15T10:07:50;8.30;99.90
18876;DHT22;9570;50.854;13.778;2023-04-15T10:10:16;8.40;99.90
18876;DHT22;9570;50.854;13.778;2023-04-15T10:12:42;8.50;99.90
18876;DHT22;9570;50.854;13.778;2023-04-15T10:15:15;8.60;99.90
18876;DHT22;9570;50.854;13.778;2023-04-15T10:17:43;8.60;99.90
18876;DHT22;9570;50.854;13.778;2023-04-15T10:20:09;8.60;99.90
18876;DHT22;9570;50.854;13.778;2023-04-15T10:22:37;8.70;99.90
18876;DHT22;9570;50.854;13.778;2023-04-15T10:25:02;8.70;99.90
18876;DHT22;9570;50.854;13.778;2023-04-15T10:27:29;8.80;99.90
18876;DHT22;9570;50.854;13.778;2023-04-15T10:29:56;8.70;99.90
18876;DHT22;9570;50.854;13.778;2023-04-15T10:32:23;8.70;99.90
18876;DHT22;9570;50.854;13.778;2023-04-15T10:34:50;8.80;99.90
18876;DHT22;9570;50.854;13.778;2023-04-15T10:37:33;8.80;99.90
18876;DHT22;9570;50.854;13.778;2023-04-15T10:39:59;8.80;99.90
18876;DHT22;9570;50.854;13.778;2023-04-15T10:42:33;8.70;99.90
18876;DHT22;9570;50.854;13.778;2023-04-15T10:44:59;8.70;99.90
18876;DHT22;9570;50.854;13.778;2023-04-15T10:47:24;8.80;99.90
18876;DHT22;9570;50.854;13.778;2023-04-15T10:50:00;8.90;99.90
18876;DHT22;9570;50.854;13.778;2023-04-15T10:52:28;9.00;99.90
18876;DHT22;9570;50.854;13.778;2023-04-15T10:55:21;9.10;99.90
18876;DHT22;9570;50.854;13.778;2023-04-15T10:57:51;9.20;99.90
18876;DHT22;9570;50.854;13.778;2023-04-15T11:00:18;9.20;99.90
18876;DHT22;9570;50.854;13.778;2023-04-15T11:02:47;9.20;99.90
18876;DHT22;9570;50.854;13.778;2023-04-15T11:05:14;9.40;99.90
18876;DHT22;9570;50.854;13.778;2023-04-15T11:15:35;9.10;99.90
18876;DHT22;9570;50.854;13.778;2023-04-15T11:20:38;9.20;99.90
18876;DHT22;9570;50.854;13.778;2023-04-15T11:23:04;9.10;99.90
18876;DHT22;9570;50.854;13.778;2023-04-15T11:25:31;9.10;99.90
18876;DHT22;9570;50.854;13.778;2023-04-15T11:27:59;9.00;99.90
18876;DHT22;9570;50.854;13.778;2023-04-15T11:30:35;8.90;99.90
18876;DHT22;9570;50.854;13.778;2023-04-15T11:33:04;9.00;99.90
18876;DHT22;9570;50.854;13.778;2023-04-15T11:35:30;9.10;99.90
18876;DHT22;9570;50.854;13.778;2023-04-15T11:37:56;9.20;99.90
18876;DHT22;9570;50.854;13.778;2023-04-15T11:40:24;9.00;99.90
18876;DHT22;9570;50.854;13.778;2023-04-15T11:43:12;9.10;99.90
18876;DHT22;9570;50.854;13.778;2023-04-15T11:46:04;9.20;99.90
18876;DHT22;9570;50.854;13.778;2023-04-15T11:48:33;9.20;99.90
18876;DHT22;9570;50.854;13.778;2023-04-15T11:51:03;9.20;99.90
18876;DHT22;9570;50.854;13.778;2023-04-15T11:53:43;9.20;99.90
18876;DHT22;9570;50.854;13.778;2023-04-15T11:58:42;9.00;99.90
18876;DHT22;9570;50.854;13.778;2023-04-15T12:01:09;9.00;99.90
18876;DHT22;9570;50.854;13.778;2023-04-15T12:03:38;9.00;99.90
18876;DHT22;9570;50.854;13.778;2023-04-15T12:06:15;8.90;99.90
18876;DHT22;9570;50.854;13.778;2023-04-15T12:14:29;9.00;99.90
18876;DHT22;9570;50.854;13.778;2023-04-15T12:17:00;9.00;99.90
18876;DHT22;9570;50.854;13.778;2023-04-15T12:21:58;9.10;99.90
18876;DHT22;9570;50.854;13.778;2023-04-15T12:24:24;9.20;99.90
18876;DHT22;9570;50.854;13.778;2023-04-15T12:26:52;9.30;99.90
18876;DHT22;9570;50.854;13.778;2023-04-15T12:29:18;9.40;99.90
18876;DHT22;9570;50.854;13.778;2023-04-15T12:31:52;9.30;99.90
18876;DHT22;9570;50.854;13.778;2023-04-15T12:34:29;9.30;99.90
18876;DHT22;9570;50.854;13.778;2023-04-15T12:36:55;9.30;99.90
18876;DHT22;9570;50.854;13.778;2023-04-15T12:39:23;9.40;99.90
18876;DHT22;9570;50.854;13.778;2023-04-15T12:41:49;9.60;99.90
18876;DHT22;9570;50.854;13.778;2023-04-15T12:44:15;9.60;99.90
18876;DHT22;9570;50.854;13.778;2023-04-15T12:46:41;9.40;99.90
18876;DHT22;9570;50.854;13.778;2023-04-15T12:49:07;9.40;99.90
18876;DHT22;9570;50.854;13.778;2023-04-15T12:51:32;9.40;99.90
18876;DHT22;9570;50.854;13.778;2023-04-15T12:53:57;9.30;99.90
18876;DHT22;9570;50.854;13.778;2023-04-15T12:56:23;9.30;99.90
18876;DHT22;9570;50.854;13.778;2023-04-15T12:58:49;9.40;99.90
18876;DHT22;9570;50.854;13.778;2023-04-15T13:01:14;9.40;99.90
18876;DHT22;9570;50.854;13.778;2023-04-15T13:03:40;9.40;99.90
18876;DHT22;9570;50.854;13.778;2023-04-15T13:06:05;9.50;99.90
18876;DHT22;9570;50.854;13.778;2023-04-15T13:08:31;9.60;99.90
18876;DHT22;9570;50.854;13.778;2023-04-15T13:10:57;9.60;99.90
18876;DHT22;9570;50.854;13.778;2023-04-15T13:13:23;9.70;99.90
18876;DHT22;9570;50.854;13.778;2023-04-15T13:15:48;9.70;99.90
18876;DHT22;9570;50.854;13.778;2023-04-15T13:18:14;9.70;99.90
18876;DHT22;9570;50.854;13.778;2023-04-15T13:20:39;9.70;99.90
18876;DHT22;9570;50.854;13.778;2023-04-15T13:23:05;9.80;99.90
18876;DHT22;9570;50.854;13.778;2023-04-15T13:25:31;9.80;99.90
18876;DHT22;9570;50.854;13.778;2023-04-15T13:27:57;9.70;99.90
18876;DHT22;9570;50.854;13.778;2023-04-15T13:30:22;9.80;99.90
18876;DHT22;9570;50.854;13.778;2023-04-15T13:32:48;9.80;99.90
18876;DHT22;9570;50.854;13.778;2023-04-15T13:35:14;9.80;99.90
18876;DHT22;9570;50.854;13.778;2023-04-15T13:37:40;9.80;99.90
18876;DHT22;9570;50.854;13.778;2023-04-15T13:40:06;9.90;99.90
18876;DHT22;9570;50.854;13.778;2023-04-15T13:42:32;10.00;99.90
18876;DHT22;9570;50.854;13.778;2023-04-15T13:44:58;10.20;99.90
18876;DHT22;9570;50.854;13.778;2023-04-15T13:47:23;10.30;99.90
18876;DHT22;9570;50.854;13.778;2023-04-15T13:49:49;10.50;99.90
18876;DHT22;9570;50.854;13.778;2023-04-15T13:52:14;10.50;99.90
18876;DHT22;9570;50.854;13.778;2023-04-15T13:54:40;10.40;99.90
18876;DHT22;9570;50.854;13.778;2023-04-15T13:57:05;10.50;99.90
18876;DHT22;9570;50.854;13.778;2023-04-15T13:59:32;10.50;99.90
18876;DHT22;9570;50.854;13.778;2023-04-15T14:01:59;10.40;99.90
18876;DHT22;9570;50.854;13.778;2023-04-15T14:04:24;10.40;99.90
18876;DHT22;9570;50.854;13.778;2023-04-15T14:06:51;10.30;99.90
18876;DHT22;9570;50.854;13.778;2023-04-15T14:09:16;10.30;99.90
18876;DHT22;9570;50.854;13.778;2023-04-15T14:11:42;10.40;99.90
18876;DHT22;9570;50.854;13.778;2023-04-15T14:14:08;10.40;99.90
18876;DHT22;9570;50.854;13.778;2023-04-15T14:16:33;10.50;99.90
18876;DHT22;9570;50.854;13.778;2023-04-15T14:18:59;10.60;99.90
18876;DHT22;9570;50.854;13.778;2023-04-15T14:21:25;10.70;99.90
18876;DHT22;9570;50.854;13.778;2023-04-15T14:23:52;10.70;99.90
18876;DHT22;9570;50.854;13.778;2023-04-15T14:26:18;10.80;99.90
18876;DHT22;9570;50.854;13.778;2023-04-15T14:28:44;10.80;99.90
18876;DHT22;9570;50.854;13.778;2023-04-15T14:31:09;11.00;99.90
18876;DHT22;9570;50.854;13.778;2023-04-15T14:33:35;11.10;99.90
18876;DHT22;9570;50.854;13.778;2023-04-15T14:36:01;11.00;99.90
18876;DHT22;9570;50.854;13.778;2023-04-15T14:38:26;11.10;99.90
18876;DHT22;9570;50.854;13.778;2023-04-15T14:40:52;11.30;99.90
18876;DHT22;9570;50.854;13.778;2023-04-15T14:43:17;11.10;99.90
18876;DHT22;9570;50.854;13.778;2023-04-15T14:45:43;10.90;99.90
18876;DHT22;9570;50.854;13.778;2023-04-15T14:48:08;10.90;99.90
18876;DHT22;9570;50.854;13.778;2023-04-15T14:50:34;10.90;99.90
18876;DHT22;9570;50.854;13.778;2023-04-15T14:53:00;10.90;99.90
18876;DHT22;9570;50.854;13.778;2023-04-15T14:55:26;11.00;99.90
18876;DHT22;9570;50.854;13.778;2023-04-15T14:57:51;10.90;99.90
18876;DHT22;9570;50.854;13.778;2023-04-15T15:00:17;11.00;99.90
18876;DHT22;9570;50.854;13.778;2023-04-15T15:02:42;10.90;99.90
18876;DHT22;9570;50.854;13.778;2023-04-15T15:05:09;10.90;99.90
18876;DHT22;9570;50.854;13.778;2023-04-15T15:07:36;10.80;99.90
18876;DHT22;9570;50.854;13.778;2023-04-15T15:10:02;10.80;99.90
18876;DHT22;9570;50.854;13.778;2023-04-15T15:12:28;10.90;99.90
18876;DHT22;9570;50.854;13.778;2023-04-15T15:14:54;10.90;99.90
18876;DHT22;9570;50.854;13.778;2023-04-15T15:17:20;11.00;99.90
18876;DHT22;9570;50.854;13.778;2023-04-15T15:19:46;11.00;99.90
18876;DHT22;9570;50.854;13.778;2023-04-15T15:22:11;10.90;99.90
18876;DHT22;9570;50.854;13.778;2023-04-15T15:24:37;11.00;99.90
18876;DHT22;9570;50.854;13.778;2023-04-15T15:27:02;11.10;99.90
18876;DHT22;9570;50.854;13.778;2023-04-15T15:29:27;11.00;99.90
18876;DHT22;9570;50.854;13.778;2023-04-15T15:31:53;10.90;99.90
18876;DHT22;9570;50.854;13.778;2023-04-15T15:34:18;10.90;99.90
18876;DHT22;9570;50.854;13.778;2023-04-15T15:36:44;11.00;99.90
18876;DHT22;9570;50.854;13.778;2023-04-15T15:39:09;11.00;99.90
18876;DHT22;9570;50.854;13.778;2023-04-15T15:41:35;10.90;99.90
18876;DHT22;9570;50.854;13.778;2023-04-15T15:44:01;10.70;99.90
18876;DHT22;9570;50.854;13.778;2023-04-15T15:46:27;10.70;99.90
18876;DHT22;9570;50.854;13.778;2023-04-15T15:48:56;10.70;99.90
18876;DHT22;9570;50.854;13.778;2023-04-15T15:51:21;10.70;99.90
18876;DHT22;9570;50.854;13.778;2023-04-15T15:53:47;10.70;99.90
18876;DHT22;9570;50.854;13.778;2023-04-15T15:56:12;10.80;99.90
18876;DHT22;9570;50.854;13.778;2023-04-15T15:58:38;10.90;99.90
18876;DHT22;9570;50.854;13.778;2023-04-15T16:01:03;11.00;99.90